createdAt,value
2018-10-07T00:00:19.438Z,96.90
2018-10-07T00:02:47.708Z,97.20
2018-10-07T00:05:15.991Z,97.00
2018-10-07T00:07:44.250Z,96.70
2018-10-07T00:10:12.513Z,96.60
2018-10-07T00:12:40.777Z,96.60
2018-10-07T00:15:09.028Z,96.60
2018-10-07T00:17:37.276Z,96.60
2018-10-07T00:20:05.534Z,96.50
2018-10-07T00:22:33.837Z,96.40
2018-10-07T00:25:02.074Z,96.20
2018-10-07T00:27:30.321Z,96.20
2018-10-07T00:29:58.545Z,95.90
2018-10-07T00:32:26.794Z,95.90
2018-10-07T00:34:55.032Z,95.90
2018-10-07T00:37:23.298Z,96.00
2018-10-07T00:39:51.566Z,95.70
2018-10-07T00:42:19.806Z,96.20
2018-10-07T00:44:48.050Z,95.90
2018-10-07T00:47:16.330Z,96.00
2018-10-07T00:49:44.698Z,96.00
2018-10-07T00:52:13.066Z,96.10
2018-10-07T00:54:41.674Z,96.30
2018-10-07T00:57:09.905Z,96.40
2018-10-07T00:59:38.152Z,96.30
2018-10-07T01:02:06.557Z,96.40
2018-10-07T01:04:34.816Z,96.70
2018-10-07T01:07:03.082Z,96.90
2018-10-07T01:09:31.346Z,96.90
2018-10-07T01:11:59.634Z,96.40
2018-10-07T01:14:27.935Z,96.40
2018-10-07T01:16:56.174Z,96.60
2018-10-07T01:19:24.457Z,96.60
2018-10-07T01:21:52.699Z,96.70
2018-10-07T01:24:20.936Z,96.70
2018-10-07T01:26:49.197Z,96.80
2018-10-07T01:29:17.449Z,96.60
2018-10-07T01:31:45.696Z,96.70
2018-10-07T01:34:13.949Z,96.70
2018-10-07T01:36:42.194Z,96.70
2018-10-07T01:39:11.774Z,96.80
2018-10-07T01:41:40.051Z,96.90
2018-10-07T01:44:08.384Z,96.70
2018-10-07T01:46:36.901Z,96.80
2018-10-07T01:49:05.239Z,96.50
2018-10-07T01:51:34.486Z,96.30
2018-10-07T01:54:02.774Z,96.40
2018-10-07T01:56:31.070Z,96.50
2018-10-07T01:58:59.306Z,96.10
2018-10-07T02:01:28.062Z,96.20
2018-10-07T02:03:56.299Z,96.20
2018-10-07T02:06:24.551Z,96.10
2018-10-07T02:08:52.799Z,95.90
2018-10-07T02:11:21.046Z,95.90
2018-10-07T02:13:49.412Z,96.10
2018-10-07T02:16:17.623Z,95.90
2018-10-07T02:18:45.887Z,95.90
2018-10-07T02:21:14.151Z,96.00
2018-10-07T02:23:42.405Z,95.80
2018-10-07T02:26:10.701Z,95.90
2018-10-07T02:28:38.944Z,95.60
2018-10-07T02:31:07.956Z,95.50
2018-10-07T02:33:36.214Z,95.30
2018-10-07T02:36:04.447Z,95.40
2018-10-07T02:38:32.704Z,95.20
2018-10-07T02:41:00.983Z,95.30
2018-10-07T02:43:29.241Z,95.00
2018-10-07T02:45:57.850Z,95.10
2018-10-07T02:48:26.134Z,95.20
2018-10-07T02:50:54.388Z,95.10
2018-10-07T02:53:22.748Z,94.70
2018-10-07T02:55:51.140Z,94.90
2018-10-07T02:58:19.427Z,94.80
2018-10-07T03:00:48.093Z,94.70
2018-10-07T03:03:16.338Z,94.70
2018-10-07T03:05:44.645Z,95.00
2018-10-07T03:08:12.887Z,94.90
2018-10-07T03:10:41.142Z,94.70
2018-10-07T03:13:09.394Z,94.80
2018-10-07T03:15:37.642Z,94.90
2018-10-07T03:18:06.156Z,95.00
2018-10-07T03:20:34.418Z,95.10
2018-10-07T03:23:02.685Z,95.70
2018-10-07T03:25:31.356Z,95.20
2018-10-07T03:27:59.607Z,95.20
2018-10-07T03:30:28.221Z,95.20
2018-10-07T03:32:56.467Z,95.20
2018-10-07T03:35:24.722Z,95.30
2018-10-07T03:37:53.005Z,95.30
2018-10-07T03:40:21.248Z,95.50
2018-10-07T03:42:49.472Z,95.40
2018-10-07T03:45:17.747Z,95.50
2018-10-07T03:47:45.987Z,95.40
2018-10-07T03:50:14.222Z,95.30
2018-10-07T03:52:42.486Z,95.40
2018-10-07T03:55:10.746Z,95.40
2018-10-07T03:57:38.980Z,95.40
2018-10-07T04:00:07.268Z,95.40
2018-10-07T04:02:35.518Z,95.40
2018-10-07T04:05:03.751Z,95.50
2018-10-07T04:07:32.003Z,95.50
2018-10-07T04:10:00.252Z,95.50
2018-10-07T04:12:28.478Z,95.50
2018-10-07T04:14:57.177Z,95.40
2018-10-07T04:17:25.421Z,95.30
2018-10-07T04:19:53.669Z,95.10
2018-10-07T04:22:21.907Z,95.20
2018-10-07T04:24:50.174Z,95.10
2018-10-07T04:27:18.409Z,95.10
2018-10-07T04:29:47.229Z,95.20
2018-10-07T04:32:15.469Z,95.30
2018-10-07T04:34:43.723Z,95.10
2018-10-07T04:37:12.129Z,95.00
2018-10-07T04:39:40.457Z,95.00
2018-10-07T04:42:08.679Z,95.10
2018-10-07T04:44:37.334Z,94.90
2018-10-07T04:47:05.589Z,94.70
2018-10-07T04:49:33.821Z,94.80
2018-10-07T04:52:02.053Z,94.70
2018-10-07T04:54:30.281Z,94.90
2018-10-07T04:56:58.510Z,95.00
2018-10-07T04:59:26.860Z,95.10
2018-10-07T05:01:55.110Z,95.20
2018-10-07T05:04:23.325Z,95.20
2018-10-07T05:06:51.615Z,95.30
2018-10-07T05:09:19.849Z,95.30
2018-10-07T05:11:48.082Z,95.30
2018-10-07T05:14:17.473Z,95.20
2018-10-07T05:16:48.287Z,95.30
2018-10-07T05:19:16.758Z,95.30
2018-10-07T05:21:45.083Z,95.30
2018-10-07T05:24:13.311Z,95.40
2018-10-07T05:26:41.572Z,95.60
2018-10-07T05:29:09.835Z,95.60
2018-10-07T05:31:38.077Z,95.60
2018-10-07T05:34:06.448Z,95.70
2018-10-07T05:36:34.718Z,95.70
2018-10-07T05:39:04.416Z,95.70
2018-10-07T05:41:32.696Z,95.50
2018-10-07T05:44:00.924Z,95.50
2018-10-07T05:46:29.173Z,95.50
2018-10-07T05:48:57.409Z,95.40
2018-10-07T05:51:25.980Z,95.30
2018-10-07T05:53:54.259Z,95.30
2018-10-07T05:56:22.498Z,95.20
2018-10-07T05:58:52.025Z,95.20
2018-10-07T06:01:38.342Z,95.10
2018-10-07T06:04:18.190Z,95.10
2018-10-07T06:06:46.522Z,94.90
2018-10-07T06:09:18.890Z,94.70
2018-10-07T06:11:47.134Z,94.70
2018-10-07T06:14:27.031Z,94.70
2018-10-07T06:16:55.267Z,94.70
2018-10-07T06:19:23.509Z,94.70
2018-10-07T06:21:51.736Z,94.60
2018-10-07T06:24:19.994Z,94.60
2018-10-07T06:26:48.258Z,94.60
2018-10-07T06:29:16.544Z,94.60
2018-10-07T06:31:45.169Z,94.60
2018-10-07T06:34:13.585Z,94.50
2018-10-07T06:36:41.873Z,94.70
2018-10-07T06:39:10.150Z,94.70
2018-10-07T06:41:38.422Z,94.60
2018-10-07T06:44:06.666Z,94.60
2018-10-07T06:46:34.909Z,94.60
2018-10-07T06:49:03.473Z,94.60
2018-10-07T06:51:31.783Z,94.70
2018-10-07T06:54:00.043Z,94.50
2018-10-07T06:56:28.382Z,94.60
2018-10-07T06:58:56.690Z,94.70
2018-10-07T07:01:24.990Z,94.70
2018-10-07T07:03:53.245Z,94.80
2018-10-07T07:06:21.897Z,94.60
2018-10-07T07:08:50.129Z,94.60
2018-10-07T07:11:18.427Z,94.50
2018-10-07T07:13:46.715Z,94.20
2018-10-07T07:16:14.962Z,94.40
2018-10-07T07:18:43.298Z,94.30
2018-10-07T07:21:13.098Z,94.20
2018-10-07T07:23:41.719Z,94.20
2018-10-07T07:26:10.014Z,94.30
2018-10-07T07:28:38.289Z,93.90
2018-10-07T07:31:07.127Z,93.60
2018-10-07T07:33:35.394Z,93.50
2018-10-07T07:36:03.976Z,93.60
2018-10-07T07:38:32.254Z,93.60
2018-10-07T07:41:00.534Z,93.50
2018-10-07T07:43:28.810Z,93.50
2018-10-07T07:45:57.068Z,93.70
2018-10-07T07:48:25.381Z,93.70
2018-10-07T07:50:53.659Z,93.60
2018-10-07T07:53:22.961Z,94.00
2018-10-07T07:55:51.218Z,93.70
2018-10-07T07:58:19.531Z,93.60
2018-10-07T08:00:47.760Z,93.60
2018-10-07T08:03:16.010Z,93.40
2018-10-07T08:05:44.529Z,93.40
2018-10-07T08:08:12.905Z,93.70
2018-10-07T08:10:41.181Z,93.30
2018-10-07T08:13:09.442Z,93.30
2018-10-07T08:15:37.692Z,93.10
2018-10-07T08:18:06.084Z,93.10
2018-10-07T08:20:34.346Z,93.00
2018-10-07T08:23:02.638Z,93.30
2018-10-07T08:25:30.934Z,93.10
2018-10-07T08:27:59.173Z,93.00
2018-10-07T08:30:27.527Z,93.10
2018-10-07T08:32:55.830Z,92.90
2018-10-07T08:35:24.333Z,93.00
2018-10-07T08:37:52.676Z,93.20
2018-10-07T08:40:20.949Z,92.80
2018-10-07T08:42:49.277Z,91.70
2018-10-07T08:45:17.569Z,91.60
2018-10-07T08:47:45.835Z,92.20
2018-10-07T08:50:14.130Z,91.80
2018-10-07T08:52:42.398Z,91.80
2018-10-07T08:55:10.647Z,91.50
2018-10-07T08:57:38.961Z,91.40
2018-10-07T09:00:07.264Z,90.70
2018-10-07T09:02:35.541Z,90.70
2018-10-07T09:05:04.043Z,89.40
2018-10-07T09:07:32.310Z,87.10
2018-10-07T09:10:00.554Z,86.70
2018-10-07T09:12:29.816Z,86.90
2018-10-07T09:14:58.093Z,84.80
2018-10-07T09:17:26.397Z,85.50
2018-10-07T09:19:54.637Z,85.30
2018-10-07T09:22:22.963Z,85.60
2018-10-07T09:24:51.225Z,84.20
2018-10-07T09:27:19.763Z,85.40
2018-10-07T09:29:48.110Z,84.80
2018-10-07T09:32:16.446Z,82.90
2018-10-07T09:34:44.661Z,84.90
2018-10-07T09:37:12.938Z,83.40
2018-10-07T09:39:41.236Z,82.60
2018-10-07T09:42:09.759Z,82.90
2018-10-07T09:44:38.012Z,81.80
2018-10-07T09:47:06.272Z,82.50
2018-10-07T09:49:34.543Z,81.70
2018-10-07T09:52:02.810Z,82.50
2018-10-07T09:54:31.075Z,83.70
2018-10-07T09:56:59.329Z,83.20
2018-10-07T09:59:27.591Z,82.00
2018-10-07T10:01:55.907Z,82.20
2018-10-07T10:04:24.283Z,81.90
2018-10-07T10:06:52.490Z,81.10
2018-10-07T10:09:20.689Z,81.90
2018-10-07T10:11:48.967Z,81.80
2018-10-07T10:14:17.297Z,81.70
2018-10-07T10:16:48.995Z,81.30
2018-10-07T10:19:24.891Z,82.40
2018-10-07T10:22:04.599Z,83.00
2018-10-07T10:24:51.169Z,83.50
2018-10-07T10:27:26.558Z,83.50
2018-10-07T10:29:57.266Z,84.00
2018-10-07T10:32:29.503Z,83.50
2018-10-07T10:35:29.522Z,83.20
2018-10-07T10:38:10.199Z,82.70
2018-10-07T10:40:45.423Z,79.70
2018-10-07T10:43:20.670Z,81.30
2018-10-07T10:47:58.950Z,82.10
2018-10-07T10:50:32.140Z,80.40
2018-10-07T10:53:08.670Z,79.40
2018-10-07T10:55:46.403Z,78.80
2018-10-07T10:58:36.302Z,78.20
2018-10-07T11:01:17.125Z,77.10
2018-10-07T11:04:22.186Z,78.70
2018-10-07T11:07:26.846Z,76.60
2018-10-07T11:10:34.146Z,76.00
2018-10-07T11:13:16.750Z,77.30
2018-10-07T11:16:56.317Z,78.40
2018-10-07T11:20:54.311Z,78.20
2018-10-07T11:23:29.197Z,79.20
2018-10-07T11:27:07.265Z,77.90
2018-10-07T11:29:54.573Z,79.30
2018-10-07T11:32:40.489Z,79.40
2018-10-07T11:35:21.449Z,79.60
2018-10-07T11:37:58.291Z,78.40
2018-10-07T11:40:41.447Z,77.20
2018-10-07T11:43:16.597Z,76.30
2018-10-07T11:45:48.141Z,77.10
2018-10-07T11:48:32.539Z,77.60
2018-10-07T11:51:22.632Z,77.40
2018-10-07T11:53:56.786Z,77.40
2018-10-07T11:56:25.081Z,77.80
2018-10-07T11:58:53.330Z,78.70
2018-10-07T12:01:21.630Z,78.40
2018-10-07T12:03:50.069Z,79.20
2018-10-07T12:06:19.749Z,78.50
2018-10-07T12:08:47.981Z,77.60
2018-10-07T12:11:16.244Z,78.20
2018-10-07T12:13:44.558Z,77.30
2018-10-07T12:16:12.901Z,77.30
2018-10-07T12:18:41.166Z,77.10
2018-10-07T12:21:09.473Z,77.90
2018-10-07T12:23:37.745Z,78.00
2018-10-07T12:26:06.151Z,76.60
2018-10-07T12:28:34.411Z,77.70
2018-10-07T12:31:02.682Z,77.70
2018-10-07T12:33:30.929Z,77.00
2018-10-07T12:35:59.228Z,76.50
2018-10-07T12:38:27.472Z,77.30
2018-10-07T12:40:55.797Z,77.00
2018-10-07T12:43:24.073Z,75.80
2018-10-07T12:45:52.385Z,76.40
2018-10-07T12:48:20.675Z,75.40
2018-10-07T12:50:48.945Z,74.70
2018-10-07T12:53:17.634Z,77.30
2018-10-07T12:55:45.900Z,74.60
2018-10-07T12:58:14.158Z,74.70
2018-10-07T13:00:44.172Z,75.20
2018-10-07T13:03:12.425Z,75.30
2018-10-07T13:05:40.754Z,73.30
2018-10-07T13:08:09.031Z,73.70
2018-10-07T13:10:37.258Z,73.20
2018-10-07T13:13:05.529Z,73.20
2018-10-07T13:15:35.338Z,74.70
2018-10-07T13:18:03.589Z,73.90
2018-10-07T13:20:32.609Z,75.00
2018-10-07T13:23:00.895Z,74.80
2018-10-07T13:25:29.522Z,75.00
2018-10-07T13:27:58.166Z,74.80
2018-10-07T13:30:27.241Z,75.10
2018-10-07T13:32:56.870Z,75.90
2018-10-07T13:35:25.220Z,76.60
2018-10-07T13:37:53.461Z,77.20
2018-10-07T13:40:21.787Z,76.80
2018-10-07T13:42:50.055Z,76.80
2018-10-07T13:45:18.332Z,76.70
2018-10-07T13:47:46.598Z,77.10
2018-10-07T13:50:14.856Z,76.60
2018-10-07T13:52:43.102Z,77.10
2018-10-07T13:55:11.360Z,77.10
2018-10-07T13:57:39.649Z,76.30
2018-10-07T14:00:08.027Z,76.60
2018-10-07T14:02:36.284Z,77.20
2018-10-07T14:05:04.552Z,77.00
2018-10-07T14:07:32.794Z,76.70
2018-10-07T14:10:01.038Z,76.90
2018-10-07T14:12:29.314Z,76.80
2018-10-07T14:14:57.573Z,77.50
2018-10-07T14:17:25.967Z,77.70
2018-10-07T14:19:54.199Z,78.90
2018-10-07T14:22:22.459Z,78.20
2018-10-07T14:24:50.718Z,77.10
2018-10-07T14:27:19.003Z,77.40
2018-10-07T14:29:47.454Z,77.40
2018-10-07T14:32:15.955Z,76.80
2018-10-07T14:34:44.231Z,77.70
2018-10-07T14:37:12.476Z,77.70
2018-10-07T14:39:40.788Z,77.40
2018-10-07T14:42:09.093Z,77.20
2018-10-07T14:44:37.731Z,76.70
2018-10-07T14:47:06.098Z,77.30
2018-10-07T14:49:34.346Z,77.30
2018-10-07T14:52:03.012Z,77.60
2018-10-07T14:54:31.250Z,77.40
2018-10-07T14:56:59.552Z,77.60
2018-10-07T14:59:27.890Z,76.90
2018-10-07T15:01:56.151Z,77.40
2018-10-07T15:04:24.428Z,78.40
2018-10-07T15:06:52.704Z,78.20
2018-10-07T15:09:21.031Z,78.40
2018-10-07T15:11:49.303Z,78.50
2018-10-07T15:14:17.559Z,78.70
2018-10-07T15:16:45.808Z,79.10
2018-10-07T15:19:14.090Z,78.40
2018-10-07T15:21:42.409Z,78.70
2018-10-07T15:24:10.723Z,78.20
2018-10-07T15:26:39.012Z,78.60
2018-10-07T15:29:09.187Z,78.90
2018-10-07T15:31:37.466Z,79.00
2018-10-07T15:34:05.771Z,79.30
2018-10-07T15:36:34.026Z,79.30
2018-10-07T15:39:02.323Z,79.40
2018-10-07T15:41:30.589Z,79.50
2018-10-07T15:43:58.868Z,79.80
2018-10-07T15:46:27.283Z,79.90
2018-10-07T15:48:55.500Z,80.20
2018-10-07T15:51:23.768Z,79.60
2018-10-07T15:53:52.059Z,79.70
2018-10-07T15:56:20.339Z,80.10
2018-10-07T15:58:48.789Z,80.00
2018-10-07T16:01:17.064Z,79.70
2018-10-07T16:03:46.278Z,80.10
2018-10-07T16:06:17.044Z,80.50
2018-10-07T16:08:46.055Z,81.00
2018-10-07T16:11:14.641Z,81.30
2018-10-07T16:13:42.891Z,81.50
2018-10-07T16:16:12.403Z,82.10
2018-10-07T16:18:40.944Z,82.20
2018-10-07T16:21:09.338Z,82.80
2018-10-07T16:23:37.598Z,83.10
2018-10-07T16:26:05.916Z,83.20
2018-10-07T16:28:34.177Z,83.70
2018-10-07T16:31:02.431Z,83.90
2018-10-07T16:33:30.808Z,84.40
2018-10-07T16:35:59.010Z,84.40
2018-10-07T16:38:27.306Z,85.00
2018-10-07T16:40:55.576Z,85.10
2018-10-07T16:43:24.445Z,86.30
2018-10-07T16:45:52.850Z,86.30
2018-10-07T16:48:21.328Z,86.10
2018-10-07T16:50:49.555Z,86.40
2018-10-07T16:53:17.813Z,86.50
2018-10-07T16:55:46.089Z,87.30
2018-10-07T16:58:14.532Z,87.00
2018-10-07T17:00:42.789Z,87.30
2018-10-07T17:03:11.093Z,88.00
2018-10-07T17:05:39.461Z,87.50
2018-10-07T17:08:07.738Z,87.80
2018-10-07T17:10:36.017Z,87.90
2018-10-07T17:13:04.360Z,88.00
2018-10-07T17:15:32.973Z,88.40
2018-10-07T17:18:01.224Z,87.90
2018-10-07T17:20:35.940Z,88.60
2018-10-07T17:23:04.212Z,88.50
2018-10-07T17:25:32.456Z,88.60
2018-10-07T17:28:01.987Z,88.80
2018-10-07T17:30:30.259Z,89.30
2018-10-07T17:32:59.583Z,89.20
2018-10-07T17:35:27.813Z,89.90
2018-10-07T17:37:56.063Z,89.90
2018-10-07T17:40:24.338Z,89.60
2018-10-07T17:42:52.642Z,90.00
2018-10-07T17:45:21.378Z,90.00
2018-10-07T17:47:49.733Z,90.10
2018-10-07T17:50:18.227Z,90.20
2018-10-07T17:52:46.671Z,90.30
2018-10-07T17:55:14.972Z,90.30
2018-10-07T17:57:43.350Z,90.20
2018-10-07T18:00:13.152Z,90.20
2018-10-07T18:02:41.553Z,90.40
2018-10-07T18:05:09.810Z,90.50
2018-10-07T18:07:38.072Z,90.40
2018-10-07T18:10:06.430Z,90.50
2018-10-07T18:12:35.232Z,90.40
2018-10-07T18:15:03.556Z,90.70
2018-10-07T18:17:31.730Z,90.60
2018-10-07T18:20:00.875Z,90.70
2018-10-07T18:22:29.526Z,90.70
2018-10-07T18:24:57.914Z,90.50
2018-10-07T18:27:26.250Z,90.90
2018-10-07T18:29:54.596Z,91.20
2018-10-07T18:32:22.884Z,91.20
2018-10-07T18:34:51.533Z,91.30
2018-10-07T18:37:19.920Z,91.20
2018-10-07T18:39:48.313Z,91.40
2018-10-07T18:42:16.581Z,91.50
2018-10-07T18:44:44.833Z,91.50
2018-10-07T18:47:13.197Z,91.60
2018-10-07T18:49:41.512Z,91.50
2018-10-07T18:52:10.292Z,91.60
2018-10-07T18:54:38.640Z,91.60
2018-10-07T18:57:07.378Z,91.60
2018-10-07T18:59:35.765Z,91.60
2018-10-07T19:02:04.079Z,91.50
2018-10-07T19:04:32.611Z,91.70
2018-10-07T19:07:00.984Z,91.90
2018-10-07T19:09:29.225Z,91.80
2018-10-07T19:11:58.332Z,92.00
2018-10-07T19:14:26.946Z,92.00
2018-10-07T19:16:55.549Z,91.90
2018-10-07T19:19:23.878Z,91.90
2018-10-07T19:21:52.136Z,92.10
2018-10-07T19:24:20.432Z,92.40
2018-10-07T19:26:48.819Z,92.40
2018-10-07T19:29:17.093Z,92.60
2018-10-07T19:31:46.467Z,92.60
2018-10-07T19:34:14.870Z,92.50
2018-10-07T19:36:43.251Z,92.60
2018-10-07T19:39:12.125Z,92.60
2018-10-07T19:41:40.895Z,92.70
2018-10-07T19:44:09.367Z,92.80
2018-10-07T19:46:37.892Z,92.80
2018-10-07T19:49:06.326Z,92.90
2018-10-07T19:51:34.752Z,93.10
2018-10-07T19:54:03.044Z,93.10
2018-10-07T19:56:31.684Z,93.30
2018-10-07T19:58:59.983Z,93.20
2018-10-07T20:01:28.367Z,93.30
2018-10-07T20:03:56.659Z,93.20
2018-10-07T20:06:24.913Z,93.30
2018-10-07T20:08:53.246Z,93.30
2018-10-07T20:11:21.646Z,93.30
2018-10-07T20:13:49.955Z,93.30
2018-10-07T20:16:18.363Z,93.30
2018-10-07T20:18:46.946Z,93.40
2018-10-07T20:21:15.210Z,93.30
2018-10-07T20:23:43.512Z,93.40
2018-10-07T20:26:11.958Z,93.40
2018-10-07T20:28:40.233Z,93.60
2018-10-07T20:31:08.479Z,93.60
2018-10-07T20:33:36.754Z,93.70
2018-10-07T20:36:04.990Z,93.60
2018-10-07T20:38:33.666Z,93.40
2018-10-07T20:41:01.971Z,93.60
2018-10-07T20:43:30.425Z,93.40
2018-10-07T20:45:59.681Z,93.90
2018-10-07T20:48:28.306Z,93.90
2018-10-07T20:50:56.624Z,93.80
2018-10-07T20:53:24.867Z,93.90
2018-10-07T20:55:53.118Z,93.90
2018-10-07T20:58:21.388Z,93.80
2018-10-07T21:00:49.661Z,93.90
2018-10-07T21:03:18.077Z,94.10
2018-10-07T21:05:47.267Z,94.10
2018-10-07T21:08:15.687Z,94.10
2018-10-07T21:10:43.981Z,94.20
2018-10-07T21:13:12.360Z,94.40
2018-10-07T21:15:40.594Z,94.30
2018-10-07T21:18:08.841Z,94.30
2018-10-07T21:20:37.179Z,94.30
2018-10-07T21:23:05.412Z,94.30
2018-10-07T21:25:33.694Z,94.20
2018-10-07T21:28:01.918Z,94.80
2018-10-07T21:30:30.178Z,95.00
2018-10-07T21:32:58.451Z,95.00
2018-10-07T21:35:26.746Z,95.10
2018-10-07T21:37:55.049Z,95.10
2018-10-07T21:40:23.760Z,95.10
2018-10-07T21:42:52.044Z,95.00
2018-10-07T21:45:20.323Z,95.00
2018-10-07T21:47:48.877Z,95.00
2018-10-07T21:50:17.137Z,95.10
2018-10-07T21:52:45.361Z,95.20
2018-10-07T21:55:14.028Z,95.10
2018-10-07T21:57:42.330Z,95.30
2018-10-07T22:00:10.577Z,95.20
2018-10-07T22:02:38.889Z,95.20
2018-10-07T22:05:07.335Z,95.20
2018-10-07T22:07:35.566Z,95.30
2018-10-07T22:10:03.815Z,95.20
2018-10-07T22:12:32.057Z,95.30
2018-10-07T22:15:00.295Z,95.30
2018-10-07T22:17:28.589Z,95.70
2018-10-07T22:19:56.881Z,95.40
2018-10-07T22:22:25.063Z,95.50
2018-10-07T22:24:53.521Z,95.60
2018-10-07T22:27:21.758Z,95.40
2018-10-07T22:29:50.021Z,95.70
2018-10-07T22:32:18.739Z,95.70
2018-10-07T22:34:46.992Z,95.60
2018-10-07T22:37:15.242Z,95.60
2018-10-07T22:39:44.002Z,95.70
2018-10-07T22:42:12.220Z,95.90
2018-10-07T22:44:40.454Z,95.70
2018-10-07T22:47:08.966Z,95.70
2018-10-07T22:49:37.314Z,95.80
2018-10-07T22:52:06.618Z,95.70
2018-10-07T22:54:34.873Z,95.80
2018-10-07T22:57:03.151Z,95.80
2018-10-07T22:59:31.422Z,95.90
2018-10-07T23:01:59.670Z,95.90
2018-10-07T23:04:28.042Z,96.00
2018-10-07T23:06:56.300Z,95.90
2018-10-07T23:09:24.543Z,96.00
2018-10-07T23:11:52.861Z,96.00
2018-10-07T23:14:21.109Z,95.80
2018-10-07T23:16:49.337Z,95.90
2018-10-07T23:21:52.875Z,96.00
2018-10-07T23:24:21.096Z,96.00
2018-10-07T23:26:49.497Z,95.90
2018-10-07T23:29:17.746Z,96.00
2018-10-07T23:31:45.982Z,95.90
2018-10-07T23:34:14.236Z,96.00
2018-10-07T23:36:42.603Z,96.10
2018-10-07T23:39:12.107Z,96.20
2018-10-07T23:41:41.143Z,96.20
2018-10-07T23:44:09.513Z,96.10
2018-10-07T23:46:37.759Z,96.20
2018-10-07T23:49:06.011Z,96.10
2018-10-07T23:51:34.986Z,96.30
2018-10-07T23:54:03.100Z,96.20
2018-10-07T23:56:31.366Z,96.20
2018-10-07T23:58:59.683Z,96.30
